Time;durP1;ratioP1;P1;durP2;ratioP2;P2;SDS_P1;SDS_P2;PMS_P1;PMS_P2;Temp;Humidity;BMP_temperature;BMP_pressure;BME280_temperature;BME280_humidity;BME280_pressure;Samples;Min_cycle;Max_cycle;Signal;HPM_P1;HPM_P2
2021/06/04 00:00:33;;;;;;;2.77;2.33;;;;;;;21.00;50.89;101676.56;5073320;28;20448;-69
2021/06/04 00:03:01;;;;;;;3.37;1.77;;;;;;;20.95;51.57;101667.72;5073790;28;20449;-70
2021/06/04 00:05:33;;;;;;;3.73;2.40;;;;;;;20.92;50.81;101677.47;5073663;28;20465;-70
2021/06/04 00:07:59;;;;;;;5.53;2.00;;;;;;;20.88;50.48;101666.34;5073760;28;20436;-71
2021/06/04 00:10:30;;;;;;;5.43;2.23;;;;;;;20.80;51.55;101660.94;5073390;28;20946;-70
2021/06/04 00:13:15;;;;;;;2.93;2.00;;;;;;;20.81;51.43;101670.84;5073157;28;20449;-70
2021/06/04 00:15:43;;;;;;;1.87;1.70;;;;;;;20.82;51.79;101659.47;5082586;28;20457;-68
2021/06/04 00:18:09;;;;;;;2.60;2.20;;;;;;;20.79;51.16;101665.66;5073436;28;20485;-69
2021/06/04 00:20:35;;;;;;;3.60;2.53;;;;;;;20.71;51.45;101663.81;5073501;28;20437;-69
2021/06/04 00:23:01;;;;;;;2.57;2.17;;;;;;;20.70;50.87;101661.41;5072770;28;20510;-69
2021/06/04 00:25:27;;;;;;;2.87;2.67;;;;;;;20.69;51.47;101657.84;5072983;28;20898;-70
2021/06/04 00:27:53;;;;;;;2.03;1.67;;;;;;;20.71;51.33;101658.31;5073034;28;20849;-69
2021/06/04 00:30:20;;;;;;;3.40;2.43;;;;;;;20.69;51.38;101657.84;5073330;28;20481;-70
2021/06/04 00:32:47;;;;;;;3.20;2.30;;;;;;;20.69;50.74;101660.59;5073326;28;20451;-69
2021/06/04 00:35:14;;;;;;;4.60;1.93;;;;;;;20.69;50.83;101654.31;5073253;28;20457;-69
2021/06/04 00:37:40;;;;;;;2.47;2.10;;;;;;;20.71;51.21;101663.00;5072924;28;21040;-70
2021/06/04 00:40:08;;;;;;;2.70;2.23;;;;;;;20.71;50.03;101669.31;5072513;28;20524;-69
2021/06/04 00:42:36;;;;;;;4.70;2.53;;;;;;;20.73;50.44;101660.72;5073175;28;20433;-69
2021/06/04 00:45:07;;;;;;;2.23;1.80;;;;;;;20.68;51.26;101659.00;5073194;28;20560;-70
2021/06/04 00:47:34;;;;;;;4.10;1.77;;;;;;;20.68;51.04;101664.53;5073120;28;20425;-71
2021/06/04 00:50:03;;;;;;;3.57;2.37;;;;;;;20.69;50.33;101668.88;5073132;28;20450;-71
2021/06/04 00:52:34;;;;;;;2.40;2.10;;;;;;;20.70;49.42;101667.72;5073092;28;20437;-71
2021/06/04 00:55:01;;;;;;;3.17;2.33;;;;;;;20.71;49.63;101663.00;5073113;28;20458;-70
2021/06/04 00:57:28;;;;;;;3.17;2.37;;;;;;;20.72;50.30;101667.38;5072998;28;20545;-70
2021/06/04 01:00:01;;;;;;;2.47;2.20;;;;;;;20.72;51.11;101675.63;5073054;28;20441;-71
2021/06/04 01:02:28;;;;;;;2.60;2.40;;;;;;;20.68;51.20;101670.03;5072874;28;20800;-71
2021/06/04 01:04:54;;;;;;;2.87;2.23;;;;;;;20.69;51.07;101679.88;5072988;28;20484;-70
2021/06/04 01:07:24;;;;;;;4.00;2.70;;;;;;;20.70;50.58;101666.91;5072711;28;20925;-70
2021/06/04 01:10:03;;;;;;;2.33;1.97;;;;;;;20.65;50.94;101665.19;5072038;28;20469;-69
2021/06/04 01:12:42;;;;;;;2.17;1.97;;;;;;;20.64;50.31;101666.34;5073168;28;20432;-71
2021/06/04 01:15:15;;;;;;;3.47;2.73;;;;;;;20.61;50.78;101670.56;5076810;28;20461;-71
2021/06/04 01:17:50;;;;;;;2.30;2.10;;;;;;;20.61;50.21;101669.78;5076797;28;20465;-69
2021/06/04 01:20:21;;;;;;;2.70;2.10;;;;;;;20.63;51.30;101656.50;5076853;28;20417;-70
2021/06/04 01:23:04;;;;;;;6.10;2.90;;;;;;;20.68;50.04;101660.97;5076486;28;20923;-70
2021/06/04 01:25:43;;;;;;;6.73;2.17;;;;;;;20.60;50.75;101654.41;5076144;28;20491;-68
2021/06/04 01:28:13;;;;;;;2.30;1.97;;;;;;;20.57;51.70;101657.84;5076545;28;20433;-70
2021/06/04 01:30:44;;;;;;;3.60;2.50;;;;;;;20.58;51.35;101663.00;5076529;28;20452;-69
2021/06/04 01:33:15;;;;;;;2.07;1.83;;;;;;;20.59;50.68;101664.63;5076124;28;20441;-69
2021/06/04 01:35:54;;;;;;;1.60;1.50;;;;;;;20.62;51.86;101660.38;5076312;28;20461;-68
2021/06/04 01:38:24;;;;;;;4.50;1.93;;;;;;;20.60;52.07;101676.44;5076038;28;20839;-70
2021/06/04 01:40:53;;;;;;;3.23;1.80;;;;;;;20.59;51.85;101672.88;5076466;28;20471;-69
2021/06/04 01:43:26;;;;;;;4.80;2.93;;;;;;;20.61;52.48;101678.03;5076424;28;20441;-69
2021/06/04 01:45:55;;;;;;;2.80;2.00;;;;;;;20.49;52.40;101672.50;5076398;28;20421;-69
2021/06/04 01:48:25;;;;;;;2.50;1.87;;;;;;;20.46;51.15;101675.94;5076282;28;20437;-69
2021/06/04 01:50:59;;;;;;;3.00;2.20;;;;;;;20.50;50.90;101671.38;5076545;28;20441;-69
2021/06/04 01:53:28;;;;;;;3.60;2.40;;;;;;;20.47;51.09;101680.28;5076202;28;20422;-69
2021/06/04 01:56:01;;;;;;;3.53;2.10;;;;;;;20.51;51.55;101681.25;5076324;28;20491;-69
2021/06/04 01:58:31;;;;;;;2.20;2.00;;;;;;;20.51;51.92;101684.00;5075813;28;20473;-69
2021/06/04 02:01:02;;;;;;;6.00;2.27;;;;;;;20.48;51.84;101681.91;5076382;28;20441;-69
2021/06/04 02:03:28;;;;;;;2.30;1.90;;;;;;;20.49;51.87;101676.06;5076087;28;20433;-68
2021/06/04 02:05:58;;;;;;;4.40;2.63;;;;;;;20.50;52.54;101674.94;5076108;28;20453;-68
2021/06/04 02:08:28;;;;;;;2.93;1.80;;;;;;;20.54;53.77;101669.53;5076020;28;20430;-66
2021/06/04 02:10:55;;;;;;;2.93;1.90;;;;;;;20.49;54.03;101680.75;5075614;28;20953;-67
2021/06/04 02:13:23;;;;;;;2.20;2.00;;;;;;;20.44;53.60;101675.44;5075931;28;20516;-68
2021/06/04 02:15:56;;;;;;;1.97;1.77;;;;;;;20.41;53.23;101683.25;5075827;28;20552;-68
2021/06/04 02:18:28;;;;;;;2.20;2.00;;;;;;;20.39;53.26;101676.47;5075741;28;20475;-69
2021/06/04 02:21:00;;;;;;;3.67;2.17;;;;;;;20.35;53.40;101681.84;5075796;28;20414;-68
2021/06/04 02:23:31;;;;;;;2.17;1.90;;;;;;;20.33;53.64;101677.84;5075190;28;20430;-68
2021/06/04 02:26:04;;;;;;;4.93;1.97;;;;;;;20.31;53.68;101666.38;5075653;28;20799;-69
2021/06/04 02:28:36;;;;;;;2.20;2.00;;;;;;;20.28;53.39;101664.31;5075629;28;20429;-69
2021/06/04 02:31:11;;;;;;;3.67;2.97;;;;;;;20.21;53.28;101656.59;5075755;28;20433;-68
2021/06/04 02:33:42;;;;;;;2.63;1.77;;;;;;;20.24;51.82;101666.13;5075385;28;20425;-69
2021/06/04 02:36:13;;;;;;;2.67;1.90;;;;;;;20.20;52.09;101663.25;5075388;28;20433;-69
2021/06/04 02:38:42;;;;;;;2.90;2.53;;;;;;;20.21;52.82;101656.59;5075360;28;20539;-68
2021/06/04 02:41:13;;;;;;;2.63;2.20;;;;;;;20.17;53.29;101655.66;5075334;28;20438;-69
2021/06/04 02:43:42;;;;;;;3.30;2.43;;;;;;;20.19;52.75;101653.41;5075245;28;20425;-68
2021/06/04 02:46:15;;;;;;;2.90;2.20;;;;;;;20.26;53.11;101647.31;5075185;28;20456;-68
2021/06/04 02:48:44;;;;;;;2.57;2.37;;;;;;;20.28;53.38;101650.56;5075119;28;20472;-69
2021/06/04 02:51:16;;;;;;;3.17;2.70;;;;;;;20.23;52.98;101653.50;5075033;28;20495;-67
2021/06/04 02:53:56;;;;;;;2.30;2.10;;;;;;;20.25;52.37;101645.72;5074993;28;20438;-68
2021/06/04 02:56:28;;;;;;;2.57;2.17;;;;;;;20.26;52.89;101648.13;5075088;28;20475;-68
2021/06/04 02:58:59;;;;;;;2.77;2.13;;;;;;;20.29;53.29;101647.44;5075042;28;20469;-69
2021/06/04 03:01:33;;;;;;;2.63;2.23;;;;;;;20.30;53.13;101654.56;5074904;28;20430;-68
2021/06/04 03:04:01;;;;;;;4.10;2.27;;;;;;;20.27;53.03;101641.47;5075082;28;20506;-68
2021/06/04 03:06:31;;;;;;;4.50;2.77;;;;;;;20.26;52.80;101641.81;5074452;28;20835;-68
2021/06/04 03:09:00;;;;;;;3.23;2.43;;;;;;;20.23;51.97;101646.06;5074830;28;20445;-69
2021/06/04 03:11:31;;;;;;;2.77;2.20;;;;;;;20.24;52.49;101639.41;5074789;28;20450;-69
2021/06/04 03:13:58;;;;;;;4.73;2.40;;;;;;;20.22;52.93;101643.66;5074696;28;20457;-70
2021/06/04 03:16:26;;;;;;;3.30;2.10;;;;;;;20.21;53.42;101633.78;5074345;28;20859;-70
2021/06/04 03:18:57;;;;;;;2.37;1.90;;;;;;;20.16;53.04;101626.56;5074493;28;20559;-70
2021/06/04 03:21:28;;;;;;;2.47;2.27;;;;;;;20.15;52.97;101630.47;5074589;28;20433;-69
2021/06/04 03:23:55;;;;;;;2.60;2.00;;;;;;;20.17;52.14;101626.22;5074061;28;21010;-70
2021/06/04 03:26:23;;;;;;;3.60;2.33;;;;;;;20.17;53.28;101630.91;5074419;28;20456;-71
2021/06/04 03:28:55;;;;;;;4.37;2.70;;;;;;;20.15;52.73;101635.97;5074301;28;20437;-70
2021/06/04 03:31:23;;;;;;;3.77;2.20;;;;;;;20.14;52.59;101634.34;5073935;28;20487;-69
2021/06/04 03:33:50;;;;;;;2.40;1.77;;;;;;;20.13;53.44;101632.72;5073811;28;20838;-69
2021/06/04 03:36:21;;;;;;;2.93;2.17;;;;;;;20.16;53.95;101627.38;5073015;28;20441;-70
2021/06/04 03:38:47;;;;;;;2.60;2.10;;;;;;;20.16;53.64;101626.56;5074069;28;20477;-70
2021/06/04 03:41:17;;;;;;;3.90;2.10;;;;;;;20.15;53.49;101628.50;5074101;28;20441;-70
2021/06/04 03:43:44;;;;;;;2.10;1.87;;;;;;;20.17;53.96;101633.66;5074957;28;20802;-69
2021/06/04 03:46:11;;;;;;;6.20;2.00;;;;;;;20.17;53.85;101630.91;5074050;28;20436;-70
2021/06/04 03:48:37;;;;;;;3.57;2.20;;;;;;;20.13;53.77;101628.03;5073751;28;20941;-70
2021/06/04 03:51:07;;;;;;;5.73;2.33;;;;;;;20.12;53.80;101636.63;5073995;28;20453;-71
2021/06/04 03:53:33;;;;;;;3.00;2.67;;;;;;;20.04;53.73;101632.81;5073913;28;20469;-69
2021/06/04 03:55:59;;;;;;;2.03;1.90;;;;;;;20.07;53.87;101640.41;5073236;28;20445;-71
2021/06/04 03:58:28;;;;;;;3.43;2.50;;;;;;;20.10;54.14;101638.94;5073480;28;20977;-70
2021/06/04 04:00:56;;;;;;;3.20;2.20;;;;;;;20.07;54.90;101642.34;5073792;28;20524;-70
2021/06/04 04:03:26;;;;;;;8.33;3.17;;;;;;;20.09;54.61;101643.59;5073779;28;20445;-70
2021/06/04 04:05:52;;;;;;;3.60;2.20;;;;;;;20.08;54.78;101636.50;5073687;28;20778;-70
2021/06/04 04:08:21;;;;;;;4.37;2.40;;;;;;;20.08;54.35;101638.47;5073642;28;20448;-71
2021/06/04 04:10:48;;;;;;;3.27;2.50;;;;;;;20.11;55.01;101630.34;5073306;28;20958;-70
2021/06/04 04:13:16;;;;;;;11.00;2.40;;;;;;;20.15;54.35;101627.72;5073616;28;20450;-72
2021/06/04 04:15:42;;;;;;;2.90;2.53;;;;;;;20.15;54.25;101625.75;5073571;28;20481;-70
2021/06/04 04:18:09;;;;;;;9.13;2.40;;;;;;;20.17;54.66;101626.22;5073456;28;20486;-71
2021/06/04 04:20:40;;;;;;;4.77;2.90;;;;;;;20.17;54.32;101626.22;5073194;28;20791;-70
2021/06/04 04:23:08;;;;;;;4.67;2.20;;;;;;;20.14;54.26;101628.84;5073529;28;20429;-71
2021/06/04 04:25:38;;;;;;;4.27;2.67;;;;;;;20.15;54.87;101630.47;5064738;22;20495;-69
2021/06/04 04:28:07;;;;;;;3.77;2.90;;;;;;;20.14;54.25;101632.41;5033850;28;20443;-70
2021/06/04 04:30:34;;;;;;;2.53;1.90;;;;;;;20.07;55.05;101634.91;5033505;28;20497;-70
2021/06/04 04:33:01;;;;;;;2.30;1.87;;;;;;;20.07;57.23;101623.09;5033073;28;20867;-69
2021/06/04 04:35:30;;;;;;;2.83;2.37;;;;;;;20.04;58.97;101630.06;5033331;28;20513;-69
2021/06/04 04:37:58;;;;;;;4.80;2.00;;;;;;;20.00;58.12;101633.84;5033080;28;21030;-70
2021/06/04 04:40:27;;;;;;;3.50;2.40;;;;;;;19.96;58.02;101639.22;5033306;28;20485;-70
2021/06/04 04:42:54;;;;;;;3.17;2.77;;;;;;;19.90;59.14;101630.38;5033275;28;20443;-70
2021/06/04 04:45:23;;;;;;;3.40;2.53;;;;;;;19.89;60.08;101634.28;5033360;28;20474;-70
2021/06/04 04:47:49;;;;;;;5.40;2.30;;;;;;;19.86;58.30;101634.16;5033215;28;20431;-70
2021/06/04 04:50:17;;;;;;;3.20;2.20;;;;;;;19.84;58.30;101637.25;5033305;28;20455;-69
2021/06/04 04:52:43;;;;;;;3.80;2.60;;;;;;;19.85;58.18;101630.59;5033338;28;20439;-69
2021/06/04 04:55:12;;;;;;;9.60;2.30;;;;;;;19.85;59.01;101627.84;5033125;28;20466;-67
2021/06/04 04:57:38;;;;;;;3.43;2.50;;;;;;;19.82;59.00;101619.47;5033228;28;20483;-68
2021/06/04 05:00:09;;;;;;;2.83;2.50;;;;;;;19.82;58.07;101620.25;5033137;28;20649;-67
2021/06/04 05:02:35;;;;;;;4.17;2.70;;;;;;;19.85;58.54;101614.09;5032507;28;20837;-66
2021/06/04 05:05:01;;;;;;;4.20;2.30;;;;;;;19.81;59.46;101626.91;5033024;28;20459;-67
2021/06/04 05:07:27;;;;;;;3.37;2.30;;;;;;;19.82;60.92;101624.97;5033048;28;20443;-67
2021/06/04 05:09:53;;;;;;;2.97;2.50;;;;;;;19.76;62.98;101621.63;5033087;28;20798;-67
2021/06/04 05:12:20;;;;;;;3.97;2.67;;;;;;;19.73;64.83;101624.25;5033037;28;20439;-66
2021/06/04 05:14:46;;;;;;;4.20;3.00;;;;;;;19.67;65.04;101617.34;5033039;28;20835;-67
2021/06/04 05:17:12;;;;;;;3.43;2.50;;;;;;;19.60;63.90;101623.34;5032984;28;20447;-67
2021/06/04 05:19:42;;;;;;;3.67;2.67;;;;;;;19.49;61.33;101620.22;5033199;28;20819;-67
2021/06/04 05:22:08;;;;;;;6.00;2.80;;;;;;;19.41;63.57;101630.13;5032631;28;20944;-67
2021/06/04 05:24:34;;;;;;;4.50;2.70;;;;;;;19.39;61.50;101632.44;5032792;28;20471;-67
2021/06/04 05:27:00;;;;;;;6.50;2.40;;;;;;;19.45;59.56;101637.72;5032946;28;20924;-67
2021/06/04 05:29:27;;;;;;;2.83;2.27;;;;;;;19.42;59.35;101637.22;5032963;28;20534;-67
2021/06/04 05:31:53;;;;;;;4.87;3.27;;;;;;;19.40;62.55;101639.53;5032946;28;20443;-67
2021/06/04 05:34:19;;;;;;;4.40;3.03;;;;;;;19.24;67.43;101633.00;5032738;28;20520;-67
2021/06/04 05:36:45;;;;;;;5.30;2.67;;;;;;;19.12;72.20;101632.94;5032527;28;20467;-67
2021/06/04 05:39:14;;;;;;;5.30;2.77;;;;;;;19.03;75.34;101635.72;5032742;28;20490;-68
2021/06/04 05:41:43;;;;;;;5.30;3.80;;;;;;;18.97;79.89;101631.56;5032914;28;20470;-68
2021/06/04 05:44:14;;;;;;;4.80;2.73;;;;;;;18.85;81.96;101634.22;5032673;28;20509;-68
2021/06/04 05:46:41;;;;;;;5.53;2.67;;;;;;;18.74;84.47;101636.56;5032935;28;20538;-68
2021/06/04 05:49:07;;;;;;;7.73;3.90;;;;;;;18.64;85.77;101625.91;5032408;28;20861;-67
2021/06/04 05:51:34;;;;;;;4.97;3.10;;;;;;;18.53;86.98;101630.16;5032871;28;20525;-67
2021/06/04 05:54:00;;;;;;;3.33;2.37;;;;;;;18.45;87.02;101625.50;5032242;28;20998;-67
2021/06/04 05:56:28;;;;;;;5.87;3.40;;;;;;;18.39;88.26;101633.09;5032392;28;20940;-68
2021/06/04 05:58:55;;;;;;;5.90;2.60;;;;;;;18.31;88.28;101634.75;5033058;28;20995;-68
2021/06/04 06:01:24;;;;;;;5.30;2.97;;;;;;;18.30;89.66;101635.88;5036218;28;20439;-67
2021/06/04 06:03:51;;;;;;;4.00;2.53;;;;;;;18.25;90.63;101627.84;5036182;28;20450;-66
2021/06/04 06:06:17;;;;;;;4.97;3.00;;;;;;;18.23;91.12;101634.75;5035785;28;21014;-71
2021/06/04 06:08:44;;;;;;;7.27;3.30;;;;;;;18.24;91.33;101639.94;5036036;28;20513;-67
2021/06/04 06:11:12;;;;;;;3.53;2.67;;;;;;;18.21;90.83;101650.75;5036005;28;20439;-68
2021/06/04 06:13:39;;;;;;;4.97;3.87;;;;;;;18.17;90.11;101647.84;5035670;28;20436;-68
2021/06/04 06:16:07;;;;;;;9.47;2.97;;;;;;;18.17;89.86;101650.59;5035686;28;20999;-68
2021/06/04 06:18:33;;;;;;;3.10;2.53;;;;;;;18.17;89.62;101664.31;5035805;28;20494;-69
2021/06/04 06:21:01;;;;;;;5.30;2.83;;;;;;;18.21;89.88;101659.78;5035827;28;20439;-67
2021/06/04 06:23:30;;;;;;;5.00;3.37;;;;;;;18.22;90.41;101661.38;5035791;28;20454;-68
2021/06/04 06:25:58;;;;;;;3.73;3.07;;;;;;;18.25;90.37;101668.19;5035507;28;20463;-68
2021/06/04 06:28:28;;;;;;;3.80;2.90;;;;;;;18.30;90.13;101662.50;5017731;28;21179;-68
2021/06/04 06:30:54;;;;;;;4.80;3.00;;;;;;;18.33;89.52;101667.34;5035739;28;20447;-67
2021/06/04 06:33:21;;;;;;;2.80;2.60;;;;;;;18.36;88.37;101670.22;5035357;28;20982;-67
2021/06/04 06:35:50;;;;;;;7.30;4.07;;;;;;;18.42;87.97;101665.38;5035236;28;20987;-67
2021/06/04 06:38:18;;;;;;;4.57;3.37;;;;;;;18.50;87.29;101666.47;5035169;28;20475;-67
2021/06/04 06:40:45;;;;;;;4.33;3.23;;;;;;;18.51;86.28;101666.16;5035201;28;20973;-67
2021/06/04 06:43:11;;;;;;;4.60;3.33;;;;;;;18.58;85.46;101671.94;5035469;28;20450;-67
2021/06/04 06:45:39;;;;;;;4.47;3.77;;;;;;;18.59;84.75;101675.47;5035329;28;20877;-67
2021/06/04 06:48:06;;;;;;;5.10;3.60;;;;;;;18.62;85.39;101669.34;5035293;28;20446;-67
2021/06/04 06:50:35;;;;;;;5.20;3.53;;;;;;;18.66;84.61;101665.59;5035288;28;20443;-67
2021/06/04 06:53:03;;;;;;;4.17;3.37;;;;;;;18.74;82.94;101674.19;5035299;28;20526;-67
2021/06/04 06:55:31;;;;;;;5.17;3.60;;;;;;;18.83;81.91;101675.75;5034939;28;20987;-67
2021/06/04 06:57:57;;;;;;;4.30;3.30;;;;;;;18.86;80.74;101664.09;5035081;28;20487;-67
2021/06/04 07:00:29;;;;;;;4.90;3.43;;;;;;;18.92;80.29;101667.47;5035155;28;20450;-67
2021/06/04 07:02:56;;;;;;;4.90;3.47;;;;;;;18.92;80.34;101664.72;5034837;28;20909;-67
2021/06/04 07:05:22;;;;;;;6.73;3.67;;;;;;;18.99;79.42;101661.44;5035138;28;20564;-66
2021/06/04 07:07:49;;;;;;;5.37;3.73;;;;;;;19.03;79.62;101662.38;5035010;28;20443;-67
2021/06/04 07:10:26;;;;;;;4.77;3.43;;;;;;;19.05;78.91;101660.94;5034934;28;20470;-67
2021/06/04 07:12:53;;;;;;;5.10;3.60;;;;;;;19.08;77.82;101659.44;5034736;28;20435;-67
2021/06/04 07:15:21;;;;;;;3.73;3.43;;;;;;;19.10;77.59;101657.97;5034891;28;20512;-66
2021/06/04 07:17:47;;;;;;;4.60;3.23;;;;;;;19.15;78.09;101655.03;5034732;28;20491;-66
2021/06/04 07:20:16;;;;;;;4.70;3.20;;;;;;;19.24;77.68;101657.72;5034502;28;20483;-67
2021/06/04 07:22:43;;;;;;;4.57;3.27;;;;;;;19.33;77.80;101658.47;5034447;28;20455;-66
2021/06/04 07:25:14;;;;;;;4.43;2.83;;;;;;;19.36;77.40;101666.06;5034346;28;20566;-66
2021/06/04 07:27:40;;;;;;;4.27;3.77;;;;;;;19.39;77.07;101667.34;5034714;28;20433;-66
2021/06/04 07:30:11;;;;;;;4.80;3.43;;;;;;;19.37;74.02;101658.63;5034508;28;20463;-66
2021/06/04 07:32:39;;;;;;;3.57;2.80;;;;;;;19.33;73.45;101661.22;5034666;28;20606;-66
2021/06/04 07:35:11;;;;;;;7.70;4.20;;;;;;;19.32;74.49;101662.38;5034082;28;20467;-67
2021/06/04 07:37:38;;;;;;;5.17;2.90;;;;;;;19.36;74.13;101654.28;5034295;28;20498;-66
2021/06/04 07:40:07;;;;;;;4.87;3.33;;;;;;;19.38;74.54;101658.28;5034523;28;20438;-67
2021/06/04 07:42:33;;;;;;;5.30;2.83;;;;;;;19.47;76.22;101655.47;5034127;28;20477;-66
2021/06/04 07:45:00;;;;;;;3.20;2.90;;;;;;;19.65;75.63;101656.97;5034284;28;20550;-67
2021/06/04 07:47:27;;;;;;;4.50;3.00;;;;;;;19.84;75.28;101662.00;5033943;28;20447;-67
2021/06/04 07:49:53;;;;;;;6.97;3.57;;;;;;;20.01;74.85;101666.53;5034154;28;20439;-66
2021/06/04 07:52:19;;;;;;;4.57;3.50;;;;;;;20.21;73.69;101669.56;5034070;28;20500;-67
2021/06/04 07:54:45;;;;;;;3.30;2.30;;;;;;;20.38;72.93;101666.63;5033998;28;20463;-67
2021/06/04 07:57:11;;;;;;;7.40;3.40;;;;;;;20.51;72.10;101675.75;5033911;28;20443;-67
2021/06/04 07:59:37;;;;;;;5.00;2.77;;;;;;;20.65;70.89;101676.22;5033969;28;20510;-67
2021/06/04 08:02:03;;;;;;;6.00;3.17;;;;;;;20.74;70.17;101674.16;5033827;28;20450;-66
2021/06/04 08:04:31;;;;;;;6.87;3.20;;;;;;;20.86;69.49;101676.91;5033815;28;20463;-66
2021/06/04 08:06:57;;;;;;;4.27;2.80;;;;;;;20.99;69.32;101674.16;5033563;28;20940;-67
2021/06/04 08:09:23;;;;;;;8.00;3.43;;;;;;;21.02;69.35;101668.75;5033821;28;20435;-67
2021/06/04 08:11:55;;;;;;;5.17;3.10;;;;;;;21.07;68.82;101678.72;5033278;28;20517;-67
2021/06/04 08:14:23;;;;;;;4.70;2.93;;;;;;;21.11;68.39;101679.63;5033751;28;20482;-67
2021/06/04 08:16:50;;;;;;;6.17;3.30;;;;;;;21.13;69.04;101677.34;5033360;28;20817;-66
2021/06/04 08:19:17;;;;;;;4.00;2.80;;;;;;;21.19;69.04;101675.16;5033640;28;20475;-67
2021/06/04 08:21:48;;;;;;;5.07;3.20;;;;;;;21.27;69.07;101668.72;5033127;28;20509;-67
2021/06/04 08:24:19;;;;;;;3.87;2.80;;;;;;;21.32;69.04;101672.06;5033323;28;20427;-67
2021/06/04 08:26:46;;;;;;;6.67;3.70;;;;;;;21.31;67.41;101667.72;5033538;28;20439;-66
2021/06/04 08:29:12;;;;;;;4.93;3.23;;;;;;;21.42;67.10;101674.34;5033279;28;20963;-67
2021/06/04 08:31:40;;;;;;;5.23;3.60;;;;;;;21.57;67.08;101674.78;5033500;28;20443;-66
2021/06/04 08:34:07;;;;;;;5.53;2.77;;;;;;;21.62;66.73;101664.31;5033331;28;20443;-67
2021/06/04 08:36:35;;;;;;;5.30;3.00;;;;;;;21.71;66.67;101669.66;5033368;28;20465;-67
2021/06/04 08:39:07;;;;;;;3.43;2.90;;;;;;;21.69;64.58;101669.19;5033231;28;20483;-67
2021/06/04 08:41:39;;;;;;;3.77;2.90;;;;;;;21.67;63.64;101666.00;5033375;28;20530;-66
2021/06/04 08:44:20;;;;;;;3.57;2.37;;;;;;;21.67;63.28;101666.00;5033225;28;20427;-66
2021/06/04 08:46:50;;;;;;;2.43;2.03;;;;;;;21.59;62.56;101661.44;5033358;28;20474;-66
2021/06/04 08:49:22;;;;;;;4.83;3.13;;;;;;;21.50;62.88;101669.03;5033289;28;20424;-67
2021/06/04 08:52:02;;;;;;;4.30;3.20;;;;;;;21.42;62.06;101670.78;5033053;28;20427;-67
2021/06/04 08:54:39;;;;;;;4.83;3.53;;;;;;;21.25;62.54;101665.50;5033181;28;20493;-66
2021/06/04 08:57:14;;;;;;;7.23;2.90;;;;;;;21.19;63.08;101667.69;5033141;28;20435;-67
2021/06/04 08:59:41;;;;;;;3.97;3.00;;;;;;;21.07;63.19;101668.53;5032844;28;21022;-67
2021/06/04 09:02:10;;;;;;;6.20;3.00;;;;;;;21.02;63.52;101665.19;5033293;28;20474;-66
2021/06/04 09:04:42;;;;;;;3.93;2.60;;;;;;;20.98;65.35;101667.81;5032724;28;21014;-67
2021/06/04 09:07:12;;;;;;;5.50;2.80;;;;;;;20.94;65.01;101666.09;5032851;28;20931;-67
2021/06/04 09:09:43;;;;;;;2.80;2.30;;;;;;;20.91;65.19;101673.94;5033133;28;20439;-67
2021/06/04 09:12:15;;;;;;;3.93;2.70;;;;;;;20.89;65.65;101672.66;5033118;28;20434;-67
2021/06/04 09:14:41;;;;;;;4.20;3.20;;;;;;;20.84;65.19;101668.19;5032688;28;20534;-66
2021/06/04 09:17:15;;;;;;;6.33;3.10;;;;;;;20.84;65.10;101672.88;5032603;28;20435;-66
2021/06/04 09:19:55;;;;;;;4.87;2.80;;;;;;;20.79;64.80;101684.94;5032947;28;20466;-66
2021/06/04 09:22:36;;;;;;;8.20;3.50;;;;;;;20.77;65.77;101683.69;5033041;28;20431;-66
2021/06/04 09:25:05;;;;;;;5.13;3.20;;;;;;;20.70;66.76;101692.50;5032721;28;20475;-66
2021/06/04 09:27:34;;;;;;;3.67;3.03;;;;;;;20.64;65.64;101693.88;5032897;28;20443;-67
2021/06/04 09:30:20;;;;;;;7.03;3.47;;;;;;;20.63;66.03;101689.53;5032904;28;20431;-66
2021/06/04 09:33:02;;;;;;;3.40;2.77;;;;;;;20.57;67.05;101693.63;5032999;28;20434;-66
2021/06/04 09:35:29;;;;;;;12.60;5.00;;;;;;;20.61;67.25;101695.34;5036226;28;20466;-66
2021/06/04 09:38:08;;;;;;;8.00;3.50;;;;;;;20.61;67.02;101694.56;5036654;28;20482;-67
2021/06/04 09:40:36;;;;;;;6.40;3.33;;;;;;;20.56;67.63;101684.56;5036358;28;20916;-66
2021/06/04 09:43:12;;;;;;;3.97;3.20;;;;;;;20.60;66.61;101701.22;5036289;28;20940;-66
2021/06/04 09:45:42;;;;;;;4.03;2.83;;;;;;;20.56;66.21;101692.81;5036524;28;20463;-67
2021/06/04 09:48:11;;;;;;;24.37;8.23;;;;;;;20.55;67.23;101704.19;5036002;28;20940;-66
2021/06/04 09:50:39;;;;;;;10.93;3.63;;;;;;;20.53;66.73;101706.47;5036091;28;20939;-67
2021/06/04 09:53:11;;;;;;;5.00;3.53;;;;;;;20.54;66.41;101697.88;5036291;28;20450;-66
2021/06/04 09:55:41;;;;;;;6.20;3.70;;;;;;;20.60;67.53;101701.22;5036258;28;20463;-68
2021/06/04 09:58:15;;;;;;;6.90;4.23;;;;;;;20.75;67.49;101708.78;5036226;28;20541;-67
2021/06/04 10:00:44;;;;;;;7.20;3.70;;;;;;;20.80;67.22;101697.53;5035940;28;20454;-66
2021/06/04 10:03:21;;;;;;;5.87;3.53;;;;;;;20.84;67.54;101689.41;5036132;28;20443;-67
2021/06/04 10:05:48;;;;;;;4.03;3.07;;;;;;;20.85;67.76;101688.25;5036128;28;20474;-67
2021/06/04 10:08:22;;;;;;;5.63;3.27;;;;;;;20.80;68.46;101685.72;5035993;28;20435;-67
2021/06/04 10:11:05;;;;;;;4.13;3.43;;;;;;;20.78;69.26;101677.03;5036012;28;20518;-66
2021/06/04 10:13:38;;;;;;;9.77;2.87;;;;;;;20.75;68.77;101675.75;5035658;28;20505;-67
2021/06/04 10:16:32;;;;;;;3.40;3.07;;;;;;;20.64;69.12;101672.66;5035938;28;20470;-67
2021/06/04 10:18:58;;;;;;;3.60;3.20;;;;;;;20.68;69.44;101663.72;5035783;28;20487;-67
2021/06/04 10:21:31;;;;;;;4.73;3.57;;;;;;;20.63;68.97;101662.78;5035585;28;20444;-67
2021/06/04 10:23:58;;;;;;;4.87;2.87;;;;;;;20.72;68.63;101668.19;5035720;28;20928;-67
2021/06/04 10:26:28;;;;;;;4.03;3.43;;;;;;;20.75;68.86;101678.50;5035289;28;20956;-67
2021/06/04 10:28:56;;;;;;;4.97;3.10;;;;;;;20.95;68.74;101676.00;5035738;28;20427;-67
2021/06/04 10:31:40;;;;;;;4.00;2.90;;;;;;;21.04;68.38;101669.22;5035735;28;20443;-68
2021/06/04 10:34:55;;;;;;;3.50;2.63;;;;;;;21.06;67.08;101669.66;5035192;28;20418;-67
2021/06/04 10:37:24;;;;;;;4.43;3.03;;;;;;;21.19;66.59;101667.69;4955151;29;20443;-67
2021/06/04 10:39:58;;;;;;;4.30;3.50;;;;;;;21.28;66.50;101662.84;5017101;28;20513;-66
2021/06/04 10:42:36;;;;;;;4.90;3.10;;;;;;;21.45;66.65;101667.34;5035536;28;20426;-67
2021/06/04 10:45:13;;;;;;;5.07;2.80;;;;;;;21.55;65.75;101666.84;5035001;28;20462;-67
2021/06/04 10:47:55;;;;;;;7.77;3.20;;;;;;;21.77;64.89;101673.78;5074885;22;20498;-70
2021/06/04 10:50:26;;;;;;;4.20;2.63;;;;;;;21.97;63.98;101673.94;5049760;28;20440;-71
2021/06/04 10:53:06;;;;;;;4.23;3.30;;;;;;;22.35;63.12;101678.94;5042856;28;20443;-72
2021/06/04 10:55:37;;;;;;;10.43;3.70;;;;;;;22.77;61.70;101673.69;5043607;28;21022;-67
2021/06/04 10:58:15;;;;;;;3.90;3.07;;;;;;;23.17;60.59;101673.47;5041729;28;20490;-69
2021/06/04 11:00:50;;;;;;;3.33;2.83;;;;;;;23.57;58.29;101666.03;5035192;28;20527;-67
2021/06/04 11:03:19;;;;;;;4.53;3.40;;;;;;;23.91;56.78;101667.16;5035154;28;20427;-69
2021/06/04 11:05:53;;;;;;;9.17;2.70;;;;;;;24.07;56.20;101667.06;5045370;28;20443;-70
2021/06/04 11:08:28;;;;;;;5.07;3.67;;;;;;;24.19;56.06;101668.88;5055121;28;20450;-70
2021/06/04 11:11:05;;;;;;;3.33;2.80;;;;;;;24.48;56.34;101668.25;5051738;28;20492;-69
2021/06/04 11:13:45;;;;;;;3.87;2.60;;;;;;;24.57;55.02;101665.19;5034976;28;20439;-70
2021/06/04 11:16:18;;;;;;;4.40;2.73;;;;;;;24.58;55.58;101658.50;5037774;28;20466;-70
2021/06/04 11:18:50;;;;;;;4.07;3.07;;;;;;;24.52;54.92;101657.19;5049324;28;20474;-71
2021/06/04 11:21:33;;;;;;;4.17;3.20;;;;;;;24.44;56.15;101661.00;5041497;28;20434;-70
2021/06/04 11:24:05;;;;;;;6.17;3.07;;;;;;;24.28;55.82;101650.84;5054177;28;20427;-70
2021/06/04 11:26:37;;;;;;;4.53;3.00;;;;;;;24.25;55.53;101665.41;5037916;28;20999;-70
2021/06/04 11:29:08;;;;;;;3.40;2.60;;;;;;;24.45;56.50;101668.19;5054731;28;20422;-70
2021/06/04 11:31:48;;;;;;;2.70;2.50;;;;;;;24.64;54.31;101668.88;5050212;28;20443;-70
2021/06/04 11:34:41;;;;;;;4.03;2.37;;;;;;;24.80;53.87;101674.31;5047309;28;20434;-70
2021/06/04 11:37:11;;;;;;;3.40;2.10;;;;;;;25.04;53.69;101675.06;5040250;28;20842;-70